createdAt,value
2023-04-10T00:02:16.950Z,3.70
2023-04-10T00:04:49.861Z,4.45
2023-04-10T00:07:22.495Z,4.05
2023-04-10T00:09:55.191Z,3.65
2023-04-10T00:12:27.895Z,3.72
2023-04-10T00:15:00.442Z,3.97
2023-04-10T00:17:33.054Z,3.90
2023-04-10T00:20:06.772Z,4.15
2023-04-10T00:22:42.919Z,3.63
2023-04-10T00:25:15.730Z,4.28
2023-04-10T00:27:48.418Z,3.05
2023-04-10T00:30:21.594Z,3.90
2023-04-10T00:32:54.248Z,4.30
2023-04-10T00:35:26.914Z,3.38
2023-04-10T00:37:59.474Z,4.28
2023-04-10T00:40:32.095Z,3.88
2023-04-10T00:43:04.869Z,3.53
2023-04-10T00:45:40.788Z,4.13
2023-04-10T00:48:13.423Z,3.78
2023-04-10T00:50:47.436Z,4.30
2023-04-10T00:53:20.532Z,4.07
2023-04-10T00:55:54.195Z,3.90
2023-04-10T00:58:26.863Z,3.65
2023-04-10T01:00:59.479Z,4.13
2023-04-10T01:03:32.295Z,3.78
2023-04-10T01:06:23.822Z,3.65
2023-04-10T01:09:16.703Z,3.80
2023-04-10T01:11:59.796Z,3.50
2023-04-10T01:15:04.540Z,4.00
2023-04-10T01:17:56.209Z,3.63
2023-04-10T01:20:37.710Z,3.58
2023-04-10T01:23:31.690Z,3.70
2023-04-10T01:26:08.709Z,3.65
2023-04-10T01:28:57.060Z,4.10
2023-04-10T01:31:53.760Z,3.60
2023-04-10T01:34:35.368Z,3.92
2023-04-10T01:37:31.055Z,4.35
2023-04-10T01:40:08.284Z,3.80
2023-04-10T01:42:57.488Z,3.85
2023-04-10T01:45:30.080Z,4.05
2023-04-10T01:48:02.763Z,3.55
2023-04-10T01:50:36.288Z,3.80
2023-04-10T01:53:10.174Z,3.58
2023-04-10T01:55:43.710Z,3.22
2023-04-10T01:58:16.573Z,3.88
2023-04-10T02:00:49.304Z,3.80
2023-04-10T02:03:22.020Z,3.80
2023-04-10T02:06:50.455Z,3.80
2023-04-10T02:09:43.091Z,3.85
2023-04-10T02:12:39.042Z,3.92
2023-04-10T02:15:12.859Z,4.00
2023-04-10T02:17:47.023Z,4.05
2023-04-10T02:20:20.207Z,3.60
2023-04-10T02:22:54.167Z,3.88
2023-04-10T02:25:26.941Z,3.35
2023-04-10T02:28:07.912Z,3.75
2023-04-10T02:30:40.428Z,3.28
2023-04-10T02:33:12.964Z,3.70
2023-04-10T02:35:45.538Z,3.40
2023-04-10T02:38:18.146Z,4.00
2023-04-10T02:40:50.694Z,4.18
2023-04-10T02:43:23.365Z,3.60
2023-04-10T02:45:55.918Z,3.80
2023-04-10T02:48:28.653Z,3.28
2023-04-10T02:51:01.269Z,3.85
2023-04-10T02:53:34.316Z,3.67
2023-04-10T02:56:08.083Z,3.53
2023-04-10T02:58:45.409Z,3.53
2023-04-10T03:01:17.954Z,3.65
2023-04-10T03:03:50.681Z,3.60
2023-04-10T03:06:27.141Z,3.97
2023-04-10T03:08:59.828Z,3.58
2023-04-10T03:11:32.356Z,3.22
2023-04-10T03:14:05.350Z,3.58
2023-04-10T03:16:38.015Z,3.80
2023-04-10T03:19:12.602Z,3.65
2023-04-10T03:21:46.838Z,3.45
2023-04-10T03:24:19.351Z,3.78
2023-04-10T03:26:52.021Z,3.67
2023-04-10T03:29:24.674Z,4.03
2023-04-10T03:31:57.186Z,3.78
2023-04-10T03:34:30.242Z,4.43
2023-04-10T03:37:03.342Z,4.15
2023-04-10T03:39:37.248Z,4.32
2023-04-10T03:42:09.774Z,3.92
2023-04-10T03:44:42.328Z,3.92
2023-04-10T03:47:14.841Z,3.67
2023-04-10T03:49:47.482Z,3.90
2023-04-10T03:52:20.993Z,4.45
2023-04-10T03:54:54.662Z,4.50
2023-04-10T03:57:27.278Z,3.80
2023-04-10T03:59:59.873Z,4.20
2023-04-10T04:02:32.426Z,4.60
2023-04-10T04:05:05.607Z,4.15
2023-04-10T04:07:38.208Z,4.28
2023-04-10T04:10:11.047Z,4.18
2023-04-10T04:12:43.569Z,4.00
2023-04-10T04:15:16.464Z,4.00
2023-04-10T04:17:49.077Z,3.45
2023-04-10T04:20:21.714Z,4.55
2023-04-10T04:22:54.216Z,5.00
2023-04-10T04:25:27.188Z,4.65
2023-04-10T04:27:59.689Z,4.57
2023-04-10T04:30:32.462Z,4.18
2023-04-10T04:33:05.016Z,3.92
2023-04-10T04:35:37.665Z,3.83
2023-04-10T04:38:10.406Z,3.88
2023-04-10T04:40:43.258Z,4.13
2023-04-10T04:43:15.974Z,4.47
2023-04-10T04:45:48.534Z,4.40
2023-04-10T04:48:21.090Z,4.07
2023-04-10T04:50:53.607Z,4.25
2023-04-10T04:53:26.163Z,4.32
2023-04-10T04:55:58.805Z,4.72
2023-04-10T04:58:31.380Z,4.20
2023-04-10T05:01:04.205Z,4.03
2023-04-10T05:03:36.883Z,4.07
2023-04-10T05:06:09.540Z,4.25
2023-04-10T05:08:42.091Z,4.25
2023-04-10T05:11:14.707Z,4.13
2023-04-10T05:13:47.327Z,3.90
2023-04-10T05:16:19.997Z,3.63
2023-04-10T05:18:53.090Z,3.55
2023-04-10T05:21:26.054Z,4.13
2023-04-10T05:23:58.576Z,4.70
2023-04-10T05:26:31.128Z,3.90
2023-04-10T05:29:04.230Z,3.88
2023-04-10T05:31:36.884Z,3.50
2023-04-10T05:34:09.543Z,4.90
2023-04-10T05:36:42.115Z,4.35
2023-04-10T05:39:15.767Z,4.13
2023-04-10T05:41:48.288Z,4.10
2023-04-10T05:44:20.882Z,3.58
2023-04-10T05:46:53.548Z,3.78
2023-04-10T05:49:26.203Z,4.05
2023-04-10T05:51:58.735Z,4.18
2023-04-10T05:54:31.430Z,4.15
2023-04-10T05:57:04.150Z,4.03
2023-04-10T05:59:36.681Z,4.03
2023-04-10T06:02:09.290Z,3.95
2023-04-10T06:04:42.519Z,4.10
2023-04-10T06:07:15.228Z,3.72
2023-04-10T06:09:47.758Z,3.70
2023-04-10T06:12:20.589Z,3.88
2023-04-10T06:14:53.195Z,3.90
2023-04-10T06:17:25.966Z,3.80
2023-04-10T06:20:01.018Z,4.05
2023-04-10T06:22:33.524Z,4.40
2023-04-10T06:25:07.297Z,4.20
2023-04-10T06:27:40.745Z,4.15
2023-04-10T06:30:13.255Z,3.88
2023-04-10T06:32:46.152Z,4.40
2023-04-10T06:35:18.812Z,3.53
2023-04-10T06:37:51.320Z,3.80
2023-04-10T06:40:23.822Z,4.32
2023-04-10T06:42:56.957Z,4.15
2023-04-10T06:45:30.667Z,3.55
2023-04-10T06:48:03.343Z,4.25
2023-04-10T06:50:35.914Z,3.50
2023-04-10T06:53:08.472Z,3.72
2023-04-10T06:55:41.026Z,3.72
2023-04-10T06:58:13.506Z,4.00
2023-04-10T07:00:46.461Z,3.75
2023-04-10T07:03:19.006Z,4.20
2023-04-10T07:05:51.571Z,3.97
2023-04-10T07:08:24.286Z,3.47
2023-04-10T07:10:58.643Z,3.70
2023-04-10T07:13:31.567Z,3.70
2023-04-10T07:16:04.718Z,3.30
2023-04-10T07:18:38.573Z,3.53
2023-04-10T07:21:14.641Z,3.47
2023-04-10T07:23:47.390Z,4.05
2023-04-10T07:26:19.909Z,3.58
2023-04-10T07:28:53.111Z,4.22
2023-04-10T07:31:25.955Z,3.35
2023-04-10T07:33:58.507Z,4.32
2023-04-10T07:36:31.862Z,3.72
2023-04-10T07:39:04.477Z,3.55
2023-04-10T07:41:36.984Z,3.90
2023-04-10T07:44:09.600Z,3.60
2023-04-10T07:46:42.416Z,2.97
2023-04-10T07:49:14.962Z,3.42
2023-04-10T07:51:47.477Z,3.72
2023-04-10T07:54:19.983Z,3.35
2023-04-10T07:56:53.250Z,3.80
2023-04-10T07:59:28.514Z,3.83
2023-04-10T08:02:01.138Z,3.70
2023-04-10T08:04:34.185Z,3.35
2023-04-10T08:07:06.886Z,3.60
2023-04-10T08:09:39.384Z,3.35
2023-04-10T08:12:11.918Z,3.67
2023-04-10T08:14:45.220Z,3.47
2023-04-10T08:17:17.769Z,3.90
2023-04-10T08:19:50.372Z,3.78
2023-04-10T08:22:22.921Z,3.38
2023-04-10T08:24:55.590Z,3.55
2023-04-10T08:27:28.585Z,4.05
2023-04-10T08:30:01.172Z,3.80
2023-04-10T08:32:33.827Z,3.25
2023-04-10T08:35:06.890Z,3.50
2023-04-10T08:37:39.541Z,3.42
2023-04-10T08:40:12.393Z,3.17
2023-04-10T08:42:44.961Z,3.60
2023-04-10T08:45:17.529Z,3.20
2023-04-10T08:47:53.191Z,3.42
2023-04-10T08:53:11.639Z,3.47
2023-04-10T08:55:45.933Z,3.55
2023-04-10T08:58:18.769Z,3.80
2023-04-10T09:00:51.597Z,3.30
2023-04-10T09:03:25.636Z,3.60
2023-04-10T09:06:06.542Z,3.63
2023-04-10T09:08:39.099Z,4.00
2023-04-10T09:11:13.141Z,3.60
2023-04-10T09:13:46.274Z,4.05
2023-04-10T09:16:30.466Z,3.42
2023-04-10T09:19:05.104Z,3.30
2023-04-10T09:21:39.158Z,3.15
2023-04-10T09:24:13.169Z,3.15
2023-04-10T09:26:45.682Z,3.13
2023-04-10T09:29:19.191Z,3.15
2023-04-10T09:31:52.060Z,3.58
2023-04-10T09:34:24.582Z,3.55
2023-04-10T09:37:01.240Z,3.13
2023-04-10T09:39:36.873Z,3.22
2023-04-10T09:44:44.149Z,3.47
2023-04-10T09:47:21.359Z,3.33
2023-04-10T09:49:57.171Z,3.30
2023-04-10T09:52:32.242Z,3.53
2023-04-10T09:55:10.210Z,3.15
2023-04-10T09:57:44.967Z,3.13
2023-04-10T10:00:18.040Z,3.15
2023-04-10T10:02:52.522Z,3.42
2023-04-10T10:05:30.456Z,2.42
2023-04-10T10:08:03.092Z,2.85
2023-04-10T10:10:41.795Z,3.33
2023-04-10T10:13:28.181Z,2.85
2023-04-10T10:16:34.841Z,2.60
2023-04-10T10:19:22.087Z,2.97
2023-04-10T10:21:56.091Z,3.40
2023-04-10T10:24:33.323Z,2.80
2023-04-10T10:27:09.908Z,2.65
2023-04-10T10:29:45.871Z,2.83
2023-04-10T10:32:20.717Z,2.20
2023-04-10T10:34:54.275Z,2.80
2023-04-10T10:37:29.944Z,2.70
2023-04-10T10:40:16.637Z,2.38
2023-04-10T10:43:14.992Z,2.80
2023-04-10T10:46:17.766Z,2.42
2023-04-10T10:48:58.849Z,2.72
2023-04-10T10:51:50.601Z,2.33
2023-04-10T10:54:34.728Z,2.20
2023-04-10T10:57:46.794Z,2.40
2023-04-10T11:00:24.925Z,2.78
2023-04-10T11:03:10.675Z,2.28
2023-04-10T11:06:02.817Z,2.17
2023-04-10T11:08:49.608Z,2.40
2023-04-10T11:11:28.408Z,2.20
2023-04-10T11:14:01.108Z,2.13
2023-04-10T11:16:34.746Z,2.28
2023-04-10T11:22:10.598Z,2.33
2023-04-10T11:25:01.940Z,2.22
2023-04-10T11:27:47.820Z,2.38
2023-04-10T11:30:34.885Z,2.03
2023-04-10T11:33:07.709Z,1.92
2023-04-10T11:35:40.549Z,2.10
2023-04-10T11:38:16.986Z,2.17
2023-04-10T11:40:59.636Z,2.20
2023-04-10T11:43:33.829Z,1.83
2023-04-10T11:46:08.097Z,1.98
2023-04-10T11:48:41.070Z,2.03
2023-04-10T11:51:14.725Z,1.90
2023-04-10T11:53:47.306Z,1.90
2023-04-10T11:56:22.055Z,1.80
2023-04-10T11:58:55.309Z,2.00
2023-04-10T12:01:28.287Z,1.98
2023-04-10T12:04:01.869Z,1.70
2023-04-10T12:06:35.592Z,1.80
2023-04-10T12:09:20.230Z,2.00
2023-04-10T12:11:55.987Z,1.73
2023-04-10T12:14:41.800Z,2.00
2023-04-10T12:17:14.553Z,1.67
2023-04-10T12:19:47.229Z,1.92
2023-04-10T12:22:20.860Z,2.17
2023-04-10T12:24:53.713Z,2.15
2023-04-10T12:27:28.859Z,2.03
2023-04-10T12:30:08.600Z,1.55
2023-04-10T12:32:41.182Z,2.20
2023-04-10T12:35:13.803Z,1.95
2023-04-10T12:37:54.537Z,2.20
2023-04-10T12:40:27.644Z,2.03
2023-04-10T12:43:00.239Z,1.70
2023-04-10T12:45:45.529Z,2.00
2023-04-10T12:48:24.462Z,1.80
2023-04-10T12:50:57.180Z,1.50
2023-04-10T12:53:30.312Z,1.70
2023-04-10T12:56:06.527Z,1.98
2023-04-10T12:58:42.383Z,1.65
2023-04-10T13:01:15.037Z,1.52
2023-04-10T13:03:49.058Z,1.25
2023-04-10T13:06:21.790Z,1.40
2023-04-10T13:08:56.079Z,1.40
2023-04-10T13:11:28.827Z,1.85
2023-04-10T13:14:01.382Z,1.60
2023-04-10T13:16:34.738Z,1.80
2023-04-10T13:19:07.316Z,1.80
2023-04-10T13:21:41.258Z,1.63
2023-04-10T13:24:16.018Z,1.45
2023-04-10T13:29:21.648Z,1.40
2023-04-10T13:31:54.339Z,1.90
2023-04-10T13:34:26.961Z,1.65
2023-04-10T13:37:00.217Z,2.17
2023-04-10T13:39:32.853Z,1.58
2023-04-10T13:42:05.575Z,1.60
2023-04-10T13:44:38.139Z,1.58
2023-04-10T13:47:10.795Z,1.77
2023-04-10T13:49:43.980Z,1.60
2023-04-10T13:52:16.516Z,1.80
2023-04-10T13:54:49.050Z,1.50
2023-04-10T13:57:21.616Z,1.60
2023-04-10T13:59:54.209Z,1.77
2023-04-10T14:02:27.007Z,1.77
2023-04-10T14:04:59.635Z,1.50
2023-04-10T14:07:33.200Z,1.83
2023-04-10T14:10:07.418Z,1.77
2023-04-10T14:12:40.344Z,1.50
2023-04-10T14:15:12.850Z,1.73
2023-04-10T14:17:45.729Z,1.65
2023-04-10T14:20:18.287Z,1.60
2023-04-10T14:22:53.627Z,1.75
2023-04-10T14:25:26.188Z,1.63
2023-04-10T14:27:59.341Z,1.77
2023-04-10T14:30:32.948Z,1.67
2023-04-10T14:33:05.735Z,1.58
2023-04-10T14:35:38.321Z,1.65
2023-04-10T14:38:11.169Z,1.58
2023-04-10T14:40:45.778Z,1.50
2023-04-10T14:43:19.313Z,1.63
2023-04-10T14:45:51.882Z,1.50
2023-04-10T14:48:24.821Z,1.73
2023-04-10T14:50:58.997Z,1.50
2023-04-10T14:53:31.554Z,1.50
2023-04-10T14:56:15.501Z,1.35
2023-04-10T14:58:48.120Z,1.55
2023-04-10T15:01:20.707Z,1.60
2023-04-10T15:03:53.721Z,1.55
2023-04-10T15:06:28.033Z,1.63
2023-04-10T15:09:01.044Z,1.45
2023-04-10T15:11:33.582Z,1.48
2023-04-10T15:14:07.386Z,1.73
2023-04-10T15:16:41.459Z,1.65
2023-04-10T15:19:14.133Z,1.42
2023-04-10T15:21:47.107Z,1.30
2023-04-10T15:24:19.702Z,1.27
2023-04-10T15:26:53.633Z,1.40
2023-04-10T15:29:26.192Z,1.23
2023-04-10T15:32:01.642Z,1.52
2023-04-10T15:34:34.247Z,1.40
2023-04-10T15:37:07.974Z,1.20
2023-04-10T15:39:43.459Z,1.20
2023-04-10T15:42:16.851Z,1.10
2023-04-10T15:44:52.452Z,1.67
2023-04-10T15:49:59.958Z,1.27
2023-04-10T15:52:33.801Z,1.90
2023-04-10T15:55:09.390Z,1.42
2023-04-10T15:57:42.012Z,1.20
2023-04-10T16:00:15.222Z,1.52
2023-04-10T16:02:47.878Z,1.55
2023-04-10T16:05:20.647Z,1.60
2023-04-10T16:07:55.251Z,1.42
2023-04-10T16:10:27.791Z,1.75
2023-04-10T16:13:04.166Z,1.42
2023-04-10T16:15:38.694Z,1.50
2023-04-10T16:18:11.289Z,1.70
2023-04-10T16:20:44.252Z,1.63
2023-04-10T16:23:16.827Z,1.65
2023-04-10T16:25:49.406Z,1.60
2023-04-10T16:28:22.921Z,1.40
2023-04-10T16:30:56.818Z,1.90
2023-04-10T16:33:30.683Z,1.88
2023-04-10T16:36:04.745Z,1.75
2023-04-10T16:38:37.323Z,2.15
2023-04-10T16:41:10.263Z,2.00
2023-04-10T16:43:42.941Z,2.10
2023-04-10T16:46:15.607Z,2.10
2023-04-10T16:48:48.178Z,2.40
2023-04-10T16:51:20.723Z,2.30
2023-04-10T16:53:53.580Z,2.13
2023-04-10T16:56:26.393Z,2.47
2023-04-10T16:58:59.041Z,2.17
2023-04-10T17:01:31.691Z,2.65
2023-04-10T17:04:04.327Z,2.30
2023-04-10T17:06:36.905Z,2.90
2023-04-10T17:09:09.392Z,2.60
2023-04-10T17:11:42.346Z,2.97
2023-04-10T17:14:15.980Z,2.70
2023-04-10T17:16:48.484Z,2.92
2023-04-10T17:19:21.033Z,2.95
2023-04-10T17:21:54.426Z,2.70
2023-04-10T17:24:27.280Z,2.95
2023-04-10T17:27:00.973Z,2.53
2023-04-10T17:29:40.447Z,2.90
2023-04-10T17:32:13.151Z,3.20
2023-04-10T17:34:46.496Z,3.45
2023-04-10T17:37:19.763Z,3.03
2023-04-10T17:39:54.223Z,2.90
2023-04-10T17:42:27.270Z,2.40
2023-04-10T17:44:59.831Z,2.65
2023-04-10T17:47:32.403Z,3.03
2023-04-10T17:50:05.812Z,3.00
2023-04-10T17:52:38.514Z,3.42
2023-04-10T17:55:11.322Z,2.95
2023-04-10T17:57:43.842Z,3.40
2023-04-10T18:00:20.022Z,2.92
2023-04-10T18:02:58.312Z,3.50
2023-04-10T18:05:31.009Z,2.90
2023-04-10T18:08:03.900Z,2.70
2023-04-10T18:10:36.463Z,2.53
2023-04-10T18:13:09.037Z,2.10
2023-04-10T18:15:41.504Z,2.92
2023-04-10T18:18:14.188Z,2.03
2023-04-10T18:20:46.864Z,2.30
2023-04-10T18:23:19.426Z,2.13
2023-04-10T18:25:55.718Z,2.25
2023-04-10T18:28:28.361Z,2.05
2023-04-10T18:31:01.113Z,1.77
2023-04-10T18:33:34.030Z,1.60
2023-04-10T18:36:07.465Z,1.67
2023-04-10T18:38:42.736Z,1.80
2023-04-10T18:41:15.493Z,1.17
2023-04-10T18:43:57.407Z,1.30
2023-04-10T18:46:34.308Z,1.40
2023-04-10T18:49:07.630Z,1.23
2023-04-10T18:51:40.863Z,1.30
2023-04-10T18:54:13.490Z,1.50
2023-04-10T18:56:46.256Z,1.05
2023-04-10T18:59:18.765Z,1.20
2023-04-10T19:01:51.432Z,1.00
2023-04-10T19:04:24.594Z,1.17
2023-04-10T19:06:57.537Z,0.80
2023-04-10T19:09:30.166Z,1.00
2023-04-10T19:12:03.100Z,1.10
2023-04-10T19:14:42.991Z,1.00
2023-04-10T19:17:15.899Z,1.08
2023-04-10T19:19:51.044Z,1.15
2023-04-10T19:22:29.630Z,0.95
2023-04-10T19:25:02.432Z,0.77
2023-04-10T19:27:35.227Z,0.90
2023-04-10T19:30:08.780Z,1.42
2023-04-10T19:32:44.619Z,1.30
2023-04-10T19:37:51.886Z,1.30
2023-04-10T19:40:24.527Z,1.20
2023-04-10T19:43:01.184Z,1.25
2023-04-10T19:45:44.712Z,1.10
2023-04-10T19:48:31.433Z,1.17
2023-04-10T19:51:13.938Z,1.00
2023-04-10T19:53:46.817Z,0.85
2023-04-10T19:56:23.319Z,0.82
2023-04-10T19:58:56.471Z,1.20
2023-04-10T20:01:31.957Z,1.02
2023-04-10T20:04:25.261Z,1.10
2023-04-10T20:07:09.480Z,1.30
2023-04-10T20:09:53.309Z,1.00
2023-04-10T20:12:30.147Z,1.23
2023-04-10T20:15:10.029Z,1.27
2023-04-10T20:17:44.244Z,1.00
2023-04-10T20:20:24.500Z,1.10
2023-04-10T20:22:59.904Z,1.50
2023-04-10T20:25:35.064Z,1.10
2023-04-10T20:28:11.168Z,1.55
2023-04-10T20:30:47.345Z,1.10
2023-04-10T20:33:20.037Z,1.63
2023-04-10T20:35:55.767Z,1.55
2023-04-10T20:38:31.453Z,1.20
2023-04-10T20:41:06.394Z,1.55
2023-04-10T20:43:39.057Z,1.05
2023-04-10T20:46:11.709Z,1.90
2023-04-10T20:48:47.266Z,1.40
2023-04-10T20:51:19.844Z,1.58
2023-04-10T20:53:52.616Z,1.73
2023-04-10T20:56:33.087Z,1.63
2023-04-10T20:59:15.453Z,1.20
2023-04-10T21:01:48.332Z,1.55
2023-04-10T21:04:21.132Z,1.73
2023-04-10T21:06:53.826Z,1.50
2023-04-10T21:09:42.310Z,2.42
2023-04-10T21:12:32.664Z,1.58
2023-04-10T21:15:13.399Z,1.73
2023-04-10T21:17:47.557Z,1.55
2023-04-10T21:20:22.152Z,2.10
2023-04-10T21:22:54.666Z,2.03
2023-04-10T21:25:28.084Z,1.40
2023-04-10T21:28:01.790Z,1.83
2023-04-10T21:30:34.346Z,1.75
2023-04-10T21:33:06.926Z,2.30
2023-04-10T21:35:43.651Z,1.95
2023-04-10T21:38:16.249Z,1.98
2023-04-10T21:40:55.594Z,1.65
2023-04-10T21:43:28.086Z,1.80
2023-04-10T21:46:02.807Z,1.60
2023-04-10T21:48:35.689Z,2.00
2023-04-10T21:51:12.458Z,1.90
2023-04-10T21:53:45.131Z,1.73
2023-04-10T21:56:18.907Z,1.60
2023-04-10T21:58:52.945Z,1.85
2023-04-10T22:01:26.217Z,2.25
2023-04-10T22:04:01.331Z,1.90
2023-04-10T22:06:34.018Z,1.88
2023-04-10T22:09:09.356Z,1.60
2023-04-10T22:11:42.009Z,1.98
2023-04-10T22:14:20.051Z,2.47
2023-04-10T22:16:54.115Z,1.92
2023-04-10T22:19:29.419Z,1.70
2023-04-10T22:22:03.262Z,2.03
2023-04-10T22:24:38.515Z,1.58
2023-04-10T22:27:11.192Z,2.03
2023-04-10T22:29:47.686Z,1.85
2023-04-10T22:32:25.760Z,2.08
2023-04-10T22:34:59.885Z,2.05
2023-04-10T22:37:33.132Z,1.80
2023-04-10T22:40:06.754Z,1.75
2023-04-10T22:42:39.319Z,1.88
2023-04-10T22:45:12.918Z,1.60
2023-04-10T22:47:45.553Z,2.13
2023-04-10T22:50:18.412Z,1.60
2023-04-10T22:52:51.204Z,1.67
2023-04-10T22:55:23.952Z,1.90
2023-04-10T22:57:56.537Z,1.52
2023-04-10T23:00:34.221Z,1.90
2023-04-10T23:03:06.933Z,1.50
2023-04-10T23:05:42.587Z,1.88
2023-04-10T23:08:15.368Z,1.92
2023-04-10T23:10:47.854Z,1.88
2023-04-10T23:13:20.563Z,2.10
2023-04-10T23:15:55.136Z,1.70
2023-04-10T23:18:27.710Z,2.50
2023-04-10T23:21:06.599Z,1.65
2023-04-10T23:23:39.107Z,1.88
2023-04-10T23:26:11.686Z,1.67
2023-04-10T23:28:44.211Z,2.13
2023-04-10T23:31:17.301Z,1.70
2023-04-10T23:33:49.857Z,2.67
2023-04-10T23:36:22.328Z,2.63
2023-04-10T23:38:55.586Z,2.67
2023-04-10T23:41:28.216Z,2.72
2023-04-10T23:44:00.790Z,2.65
2023-04-10T23:46:33.398Z,3.03
2023-04-10T23:49:05.938Z,2.55
2023-04-10T23:51:38.510Z,2.10
2023-04-10T23:54:14.126Z,2.60
2023-04-10T23:56:46.638Z,2.17
2023-04-10T23:59:19.221Z,2.42
